createdAt,value
2023-02-28T00:02:31.231Z,71.93
2023-02-28T00:05:39.823Z,75.66
2023-02-28T00:08:46.612Z,85.21
2023-02-28T00:11:53.027Z,84.95
2023-02-28T00:14:59.839Z,84.29
2023-02-28T00:18:06.465Z,92.49
2023-02-28T00:21:15.883Z,97.74
2023-02-28T00:24:21.749Z,95.40
2023-02-28T00:27:28.528Z,101.59
2023-02-28T00:30:34.491Z,101.28
2023-02-28T00:33:45.047Z,102.72
2023-02-28T00:36:53.543Z,106.08
2023-02-28T00:40:00.416Z,121.96
2023-02-28T00:43:06.802Z,139.25
2023-02-28T00:46:13.757Z,148.60
2023-02-28T00:49:19.656Z,145.23
2023-02-28T00:52:29.115Z,168.33
2023-02-28T00:55:34.978Z,161.71
2023-02-28T00:58:41.777Z,149.36
2023-02-28T01:01:49.991Z,152.10
2023-02-28T01:04:58.024Z,164.95
2023-02-28T01:08:06.643Z,154.97
2023-02-28T01:11:16.018Z,161.98
2023-02-28T01:14:23.182Z,156.30
2023-02-28T01:17:30.086Z,154.04
2023-02-28T01:20:36.930Z,160.55
2023-02-28T01:23:47.058Z,155.62
2023-02-28T01:26:52.940Z,145.82
2023-02-28T01:30:01.786Z,161.44
2023-02-28T01:33:07.614Z,189.61
2023-02-28T01:36:19.208Z,161.46
2023-02-28T01:39:27.772Z,155.88
2023-02-28T01:42:34.515Z,151.72
2023-02-28T01:45:41.152Z,152.37
2023-02-28T01:48:55.344Z,146.80
2023-02-28T01:52:01.670Z,144.87
2023-02-28T01:55:16.113Z,152.04
2023-02-28T01:58:22.856Z,149.73
2023-02-28T02:01:34.753Z,144.17
2023-02-28T02:04:51.241Z,155.81
2023-02-28T02:08:06.261Z,149.63
2023-02-28T02:11:25.772Z,150.11
2023-02-28T02:14:55.269Z,165.08
2023-02-28T02:18:13.106Z,156.15
2023-02-28T02:22:00.093Z,148.78
2023-02-28T02:25:36.402Z,156.44
2023-02-28T02:29:33.254Z,151.16
2023-02-28T02:33:21.895Z,149.43
2023-02-28T02:36:39.596Z,158.39
2023-02-28T02:40:08.641Z,165.49
2023-02-28T02:43:28.588Z,164.19
2023-02-28T02:46:43.667Z,164.46
2023-02-28T02:49:59.729Z,162.21
2023-02-28T02:53:13.110Z,168.30
2023-02-28T02:56:30.190Z,171.95
2023-02-28T02:59:42.071Z,161.80
2023-02-28T03:02:53.436Z,161.62
2023-02-28T03:06:04.996Z,163.87
2023-02-28T03:09:21.171Z,159.71
2023-02-28T03:12:43.921Z,150.20
2023-02-28T03:16:17.055Z,144.55
2023-02-28T03:20:01.640Z,146.35
2023-02-28T03:23:23.491Z,139.65
2023-02-28T03:26:33.787Z,139.82
2023-02-28T03:29:50.334Z,140.61
2023-02-28T03:33:07.825Z,146.47
2023-02-28T03:36:24.027Z,157.67
2023-02-28T03:39:43.559Z,157.92
2023-02-28T03:43:04.923Z,157.08
2023-02-28T03:46:22.328Z,157.13
2023-02-28T03:49:39.357Z,156.72
2023-02-28T03:52:54.450Z,155.80
2023-02-28T03:56:12.773Z,160.04
2023-02-28T03:59:37.211Z,169.77
2023-02-28T04:02:44.275Z,183.83
2023-02-28T04:05:57.287Z,190.22
2023-02-28T04:09:04.933Z,195.18
2023-02-28T04:12:12.109Z,211.42
2023-02-28T04:15:24.001Z,211.83
2023-02-28T04:18:30.010Z,209.17
2023-02-28T04:21:40.197Z,212.53
2023-02-28T04:24:48.042Z,215.31
2023-02-28T04:27:58.698Z,212.10
2023-02-28T04:31:14.426Z,209.86
2023-02-28T04:34:22.413Z,206.04
2023-02-28T04:37:30.493Z,206.07
2023-02-28T04:40:37.156Z,208.02
2023-02-28T04:43:43.117Z,201.57
2023-02-28T04:46:53.460Z,206.71
2023-02-28T04:49:59.462Z,204.46
2023-02-28T04:53:06.113Z,220.97
2023-02-28T04:56:16.184Z,248.46
2023-02-28T04:59:22.886Z,238.77
2023-02-28T05:02:31.455Z,239.59
2023-02-28T05:05:38.241Z,228.34
2023-02-28T05:08:44.922Z,226.27
2023-02-28T05:11:51.550Z,228.97
2023-02-28T05:14:57.479Z,238.13
2023-02-28T05:18:12.404Z,249.93
2023-02-28T05:21:35.285Z,257.50
2023-02-28T05:24:43.491Z,265.91
2023-02-28T05:27:55.248Z,261.48
2023-02-28T05:31:08.718Z,250.88
2023-02-28T05:34:18.996Z,239.76
2023-02-28T05:37:25.705Z,228.69
2023-02-28T05:40:31.665Z,226.83
2023-02-28T05:43:38.985Z,227.59
2023-02-28T05:46:44.854Z,235.95
2023-02-28T05:49:54.687Z,249.87
2023-02-28T05:53:00.626Z,256.03
2023-02-28T05:56:09.257Z,262.69
2023-02-28T05:59:15.484Z,265.35
2023-02-28T06:02:22.624Z,261.65
2023-02-28T06:05:31.859Z,280.85
2023-02-28T06:08:38.546Z,272.35
2023-02-28T06:11:44.608Z,272.00
2023-02-28T06:14:51.304Z,275.10
2023-02-28T06:17:57.617Z,297.64
2023-02-28T06:21:07.354Z,320.18
2023-02-28T06:24:13.543Z,324.03
2023-02-28T06:27:20.698Z,315.12
2023-02-28T06:30:29.375Z,308.00
2023-02-28T06:33:36.101Z,294.87
2023-02-28T06:36:46.277Z,290.38
2023-02-28T06:39:57.041Z,283.74
2023-02-28T06:43:15.672Z,287.08
2023-02-28T06:46:28.392Z,286.11
2023-02-28T06:49:35.017Z,289.63
2023-02-28T06:52:44.476Z,293.69
2023-02-28T06:55:55.055Z,289.09
2023-02-28T06:59:11.357Z,277.07
2023-02-28T07:02:17.171Z,275.33
2023-02-28T07:05:24.014Z,266.40
2023-02-28T07:08:32.920Z,283.80
2023-02-28T07:11:39.678Z,270.64
2023-02-28T07:14:45.683Z,241.61
2023-02-28T07:17:52.414Z,243.67
2023-02-28T07:20:58.381Z,244.51
2023-02-28T07:24:08.543Z,244.31
2023-02-28T07:27:26.839Z,236.65
2023-02-28T07:30:33.565Z,280.63
2023-02-28T07:33:41.847Z,299.62
2023-02-28T07:36:48.582Z,347.51
2023-02-28T07:39:58.424Z,328.02
2023-02-28T07:43:07.922Z,323.41
2023-02-28T07:46:17.833Z,283.21
2023-02-28T07:49:25.202Z,238.03
2023-02-28T07:52:31.195Z,252.17
2023-02-28T07:55:40.503Z,231.63
2023-02-28T07:58:46.364Z,231.35
2023-02-28T08:01:53.493Z,223.42
2023-02-28T08:04:59.569Z,232.94
2023-02-28T08:08:09.458Z,220.62
2023-02-28T08:11:18.905Z,213.58
2023-02-28T08:14:26.960Z,207.08
2023-02-28T08:17:35.333Z,234.60
2023-02-28T08:20:42.893Z,197.59
2023-02-28T08:23:50.797Z,204.28
2023-02-28T08:27:00.593Z,186.13
2023-02-28T08:30:09.324Z,182.82
2023-02-28T08:33:17.126Z,166.77
2023-02-28T08:36:23.972Z,158.44
2023-02-28T08:39:30.778Z,162.53
2023-02-28T08:42:40.073Z,157.59
2023-02-28T08:45:46.991Z,142.05
2023-02-28T08:49:00.474Z,141.63
2023-02-28T08:52:14.724Z,140.32
2023-02-28T08:55:20.757Z,161.20
2023-02-28T08:58:30.683Z,165.70
2023-02-28T09:01:37.845Z,151.77
2023-02-28T09:04:46.576Z,158.55
2023-02-28T09:07:53.812Z,136.29
2023-02-28T09:11:07.714Z,129.52
2023-02-28T09:14:18.650Z,135.69
2023-02-28T09:17:25.608Z,120.04
2023-02-28T09:20:36.467Z,132.79
2023-02-28T09:23:43.443Z,134.84
2023-02-28T09:26:56.801Z,141.03
2023-02-28T09:30:16.482Z,133.55
2023-02-28T09:33:24.787Z,131.99
2023-02-28T09:36:44.791Z,139.11
2023-02-28T09:39:51.371Z,134.60
2023-02-28T09:43:03.711Z,145.71
2023-02-28T09:46:35.684Z,136.63
2023-02-28T09:49:50.217Z,139.25
2023-02-28T09:52:59.742Z,141.37
2023-02-28T09:56:13.272Z,139.44
2023-02-28T09:59:38.165Z,125.98
2023-02-28T10:03:24.858Z,130.26
2023-02-28T10:06:39.383Z,152.14
2023-02-28T10:09:46.479Z,152.09
2023-02-28T10:13:00.006Z,131.19
2023-02-28T10:16:15.425Z,136.03
2023-02-28T10:19:34.732Z,141.46
2023-02-28T10:22:57.266Z,136.47
2023-02-28T10:26:17.207Z,127.15
2023-02-28T10:29:23.988Z,122.15
2023-02-28T10:32:35.563Z,129.94
2023-02-28T10:35:44.920Z,120.08
2023-02-28T10:38:52.871Z,121.07
2023-02-28T10:41:59.619Z,125.80
2023-02-28T10:45:18.510Z,126.75
2023-02-28T10:48:38.209Z,123.68
2023-02-28T10:51:46.746Z,126.66
2023-02-28T10:54:53.985Z,129.17
2023-02-28T10:57:59.961Z,132.50
2023-02-28T11:01:07.029Z,127.11
2023-02-28T11:04:37.073Z,136.23
2023-02-28T11:07:55.733Z,128.02
2023-02-28T11:11:09.108Z,129.08
2023-02-28T11:14:26.136Z,137.82
2023-02-28T11:17:35.662Z,138.73
2023-02-28T11:20:44.549Z,143.28
2023-02-28T11:24:02.817Z,135.44
2023-02-28T11:27:11.804Z,134.08
2023-02-28T11:30:40.327Z,135.80
2023-02-28T11:33:52.662Z,139.16
2023-02-28T11:37:04.895Z,142.79
2023-02-28T11:40:19.766Z,139.45
2023-02-28T11:43:55.856Z,143.17
2023-02-28T11:47:14.137Z,141.21
2023-02-28T11:50:42.246Z,145.02
2023-02-28T11:54:18.983Z,147.94
2023-02-28T11:57:52.751Z,147.23
2023-02-28T12:01:19.004Z,145.16
2023-02-28T12:04:46.085Z,145.77
2023-02-28T12:08:19.711Z,145.04
2023-02-28T12:11:53.661Z,142.32
2023-02-28T12:15:32.372Z,145.67
2023-02-28T12:19:10.411Z,142.86
2023-02-28T12:22:33.863Z,150.55
2023-02-28T12:25:59.904Z,153.63
2023-02-28T12:29:21.585Z,153.28
2023-02-28T12:32:45.769Z,153.28
2023-02-28T12:35:59.864Z,153.32
2023-02-28T12:39:14.150Z,173.18
2023-02-28T12:42:32.456Z,167.98
2023-02-28T12:45:50.270Z,155.97
2023-02-28T12:49:14.468Z,155.27
2023-02-28T12:52:32.669Z,150.57
2023-02-28T12:55:54.404Z,151.02
2023-02-28T12:59:08.231Z,157.37
2023-02-28T13:02:59.462Z,159.99
2023-02-28T13:06:53.523Z,160.92
2023-02-28T13:10:08.804Z,163.29
2023-02-28T13:13:30.804Z,169.87
2023-02-28T13:17:01.293Z,158.16
2023-02-28T13:20:08.309Z,172.29
2023-02-28T13:24:03.260Z,178.08
2023-02-28T13:27:43.909Z,162.28
2023-02-28T13:31:12.559Z,174.94
2023-02-28T13:34:20.855Z,183.79
2023-02-28T13:37:48.907Z,201.90
2023-02-28T13:40:55.005Z,170.28
2023-02-28T13:44:11.780Z,171.06
2023-02-28T13:47:33.744Z,155.55
2023-02-28T13:50:42.964Z,162.85
2023-02-28T13:54:13.771Z,167.19
2023-02-28T13:57:46.101Z,160.49
2023-02-28T14:01:44.398Z,158.23
2023-02-28T14:05:06.191Z,156.58
2023-02-28T14:08:22.800Z,175.45
2023-02-28T14:11:36.061Z,170.77
2023-02-28T14:15:00.915Z,169.38
2023-02-28T14:18:27.269Z,162.99
2023-02-28T14:21:38.418Z,159.90
2023-02-28T14:25:14.818Z,161.69
2023-02-28T14:28:45.860Z,163.42
2023-02-28T14:32:12.845Z,163.25
2023-02-28T14:36:06.107Z,159.90
2023-02-28T14:39:26.737Z,163.06
2023-02-28T14:42:39.260Z,164.56
2023-02-28T14:45:46.135Z,155.01
2023-02-28T14:48:54.424Z,151.83
2023-02-28T14:52:19.147Z,153.16
2023-02-28T14:55:32.134Z,156.44
2023-02-28T14:58:39.012Z,151.82
2023-02-28T15:01:45.008Z,153.19
2023-02-28T15:05:00.981Z,151.61
2023-02-28T15:08:18.941Z,155.06
2023-02-28T15:11:26.134Z,157.30
2023-02-28T15:14:32.342Z,175.31
2023-02-28T15:17:40.463Z,198.96
2023-02-28T15:20:49.506Z,215.05
2023-02-28T15:24:04.834Z,189.71
2023-02-28T15:27:19.022Z,198.34
2023-02-28T15:30:33.854Z,182.57
2023-02-28T15:33:40.560Z,222.65
2023-02-28T15:36:47.299Z,250.71
2023-02-28T15:39:58.601Z,237.92
2023-02-28T15:43:11.505Z,244.43
2023-02-28T15:46:19.204Z,256.24
2023-02-28T15:49:27.786Z,274.62
2023-02-28T15:52:44.926Z,243.22
2023-02-28T15:56:04.985Z,220.56
2023-02-28T15:59:20.455Z,204.32
2023-02-28T16:02:36.650Z,225.34
2023-02-28T16:05:42.724Z,227.60
2023-02-28T16:08:52.374Z,198.07
2023-02-28T16:12:06.618Z,186.34
2023-02-28T16:15:27.252Z,182.37
2023-02-28T16:18:35.728Z,192.36
2023-02-28T16:21:44.672Z,307.35
2023-02-28T16:24:50.731Z,224.49
2023-02-28T16:28:10.853Z,271.90
2023-02-28T16:31:20.271Z,277.19
2023-02-28T16:34:31.350Z,225.15
2023-02-28T16:37:39.616Z,225.50
2023-02-28T16:40:46.992Z,243.43
2023-02-28T16:44:01.378Z,232.28
2023-02-28T16:47:15.727Z,248.37
2023-02-28T16:50:29.652Z,273.95
2023-02-28T16:53:36.696Z,321.94
2023-02-28T16:56:51.193Z,360.87
2023-02-28T17:00:01.889Z,376.38
2023-02-28T17:03:11.693Z,479.13
2023-02-28T17:06:26.032Z,538.65
2023-02-28T17:09:42.389Z,624.03
2023-02-28T17:12:49.341Z,574.29
2023-02-28T17:15:58.575Z,643.34
2023-02-28T17:19:10.176Z,1147.41
2023-02-28T17:22:16.119Z,963.63
2023-02-28T17:25:24.490Z,779.87
2023-02-28T17:28:34.613Z,805.70
2023-02-28T17:31:47.790Z,688.62
2023-02-28T17:34:54.575Z,821.51
2023-02-28T17:38:01.468Z,657.89
2023-02-28T17:41:15.641Z,691.45
2023-02-28T17:44:22.700Z,664.91
2023-02-28T17:47:31.386Z,567.19
2023-02-28T17:50:38.111Z,710.32
2023-02-28T17:53:44.612Z,533.62
2023-02-28T17:56:51.669Z,423.41
2023-02-28T18:00:02.752Z,371.61
2023-02-28T18:03:35.572Z,380.47
2023-02-28T18:06:51.238Z,394.14
2023-02-28T18:09:58.057Z,386.88
2023-02-28T18:13:04.906Z,424.29
2023-02-28T18:16:12.873Z,421.32
2023-02-28T18:19:21.959Z,363.98
2023-02-28T18:22:28.878Z,363.43
2023-02-28T18:25:34.774Z,395.91
2023-02-28T18:28:42.734Z,453.89
2023-02-28T18:31:49.215Z,469.57
2023-02-28T18:34:58.799Z,475.37
2023-02-28T18:38:09.075Z,463.80
2023-02-28T18:41:16.413Z,458.21
2023-02-28T18:44:22.561Z,462.88
2023-02-28T18:47:29.473Z,370.45
2023-02-28T18:50:42.005Z,319.32
2023-02-28T18:53:50.207Z,333.52
2023-02-28T18:56:56.472Z,346.67
2023-02-28T19:00:03.391Z,370.67
2023-02-28T19:03:09.334Z,409.42
2023-02-28T19:06:19.279Z,457.76
2023-02-28T19:09:25.222Z,339.84
2023-02-28T19:12:31.936Z,381.79
2023-02-28T19:15:37.870Z,376.77
2023-02-28T19:18:45.380Z,448.66
2023-02-28T19:21:55.503Z,552.85
2023-02-28T19:25:03.070Z,539.21
2023-02-28T19:28:09.134Z,455.02
2023-02-28T19:31:19.885Z,441.75
2023-02-28T19:34:26.979Z,617.36
2023-02-28T19:37:40.654Z,466.18
2023-02-28T19:40:46.890Z,498.72
2023-02-28T19:43:55.720Z,581.19
2023-02-28T19:47:01.779Z,623.61
2023-02-28T19:50:10.187Z,580.43
2023-02-28T19:53:18.771Z,548.78
2023-02-28T19:56:26.307Z,514.22
2023-02-28T19:59:39.221Z,698.63
2023-02-28T20:02:46.927Z,694.06
2023-02-28T20:06:05.191Z,586.20
2023-02-28T20:09:15.644Z,623.40
2023-02-28T20:12:24.682Z,712.48
2023-02-28T20:15:32.566Z,518.68
2023-02-28T20:18:39.116Z,416.77
2023-02-28T20:21:45.999Z,389.67
2023-02-28T20:24:54.603Z,404.45
2023-02-28T20:28:01.506Z,459.89
2023-02-28T20:31:15.444Z,462.53
2023-02-28T20:34:27.340Z,548.37
2023-02-28T20:37:33.386Z,569.37
2023-02-28T20:40:42.979Z,537.43
2023-02-28T20:43:49.540Z,531.31
2023-02-28T20:46:56.430Z,541.23
2023-02-28T20:50:02.355Z,524.02
2023-02-28T20:53:09.115Z,529.10
2023-02-28T20:56:21.407Z,555.13
2023-02-28T20:59:28.232Z,565.61
2023-02-28T21:02:34.439Z,563.24
2023-02-28T21:05:41.171Z,602.10
2023-02-28T21:08:48.212Z,673.86
2023-02-28T21:11:59.249Z,684.73
2023-02-28T21:15:05.375Z,632.86
2023-02-28T21:18:12.235Z,595.66
2023-02-28T21:21:22.258Z,618.79
2023-02-28T21:24:29.033Z,642.79
2023-02-28T21:27:38.029Z,662.42
2023-02-28T21:30:44.831Z,848.17
2023-02-28T21:33:51.449Z,1062.75
2023-02-28T21:36:58.269Z,1124.83
2023-02-28T21:40:04.301Z,1394.70
2023-02-28T21:43:13.777Z,1237.95
2023-02-28T21:46:23.651Z,1195.47
2023-02-28T21:49:31.049Z,1413.47
2023-02-28T21:52:37.094Z,1670.23
2023-02-28T21:55:44.113Z,1494.07
2023-02-28T21:59:00.820Z,1305.22
2023-02-28T22:02:10.903Z,1172.21
2023-02-28T22:05:16.874Z,1922.06
2023-02-28T22:08:23.967Z,1413.55
2023-02-28T22:11:30.199Z,1255.90
2023-02-28T22:14:41.924Z,1189.91
2023-02-28T22:17:48.253Z,1184.43
2023-02-28T22:20:58.205Z,1192.09
2023-02-28T22:24:04.223Z,1235.60
2023-02-28T22:27:11.096Z,1229.75
2023-02-28T22:30:21.111Z,1211.80
2023-02-28T22:33:29.791Z,1197.52
2023-02-28T22:36:36.502Z,1257.44
2023-02-28T22:39:44.056Z,1247.97
2023-02-28T22:42:50.929Z,1208.68
2023-02-28T22:46:03.862Z,1205.51
2023-02-28T22:49:10.138Z,1207.41
2023-02-28T22:52:16.955Z,1248.93
2023-02-28T22:55:22.968Z,1232.43
2023-02-28T22:58:30.945Z,1194.21
2023-02-28T23:01:40.853Z,1192.58
2023-02-28T23:04:47.771Z,1182.88
2023-02-28T23:07:53.801Z,1169.16
2023-02-28T23:11:01.030Z,1227.85
2023-02-28T23:14:08.785Z,1237.95
2023-02-28T23:17:18.177Z,1135.46
2023-02-28T23:20:24.947Z,1129.90
2023-02-28T23:23:32.073Z,1168.76
2023-02-28T23:26:38.195Z,1214.98
2023-02-28T23:29:45.235Z,1270.94
2023-02-28T23:32:54.107Z,1231.23
2023-02-28T23:36:04.314Z,1235.45
2023-02-28T23:39:10.303Z,1242.42
2023-02-28T23:42:17.110Z,1228.30
2023-02-28T23:45:23.307Z,1233.53
2023-02-28T23:48:32.973Z,1236.34
2023-02-28T23:51:39.592Z,1238.68
2023-02-28T23:54:47.068Z,1255.42
2023-02-28T23:57:53.026Z,1261.01
